sensor_id;sensor_type;location;lat;lon;timestamp;temperature;humidity
10057;DHT22;5068;51.286;7.518;2023-04-01T00:00:05;9.30;66.00
10057;DHT22;5068;51.286;7.518;2023-04-01T00:01:43;9.30;66.00
10057;DHT22;5068;51.286;7.518;2023-04-01T00:03:17;9.30;66.00
10057;DHT22;5068;51.286;7.518;2023-04-01T00:04:51;9.30;66.00
10057;DHT22;5068;51.286;7.518;2023-04-01T00:06:25;9.30;66.10
10057;DHT22;5068;51.286;7.518;2023-04-01T00:07:59;9.30;65.90
10057;DHT22;5068;51.286;7.518;2023-04-01T00:09:33;9.30;65.80
10057;DHT22;5068;51.286;7.518;2023-04-01T00:11:07;9.30;65.80
10057;DHT22;5068;51.286;7.518;2023-04-01T00:12:42;9.30;65.80
10057;DHT22;5068;51.286;7.518;2023-04-01T00:14:19;9.30;65.90
10057;DHT22;5068;51.286;7.518;2023-04-01T00:15:53;9.30;65.90
10057;DHT22;5068;51.286;7.518;2023-04-01T00:17:28;9.30;65.80
10057;DHT22;5068;51.286;7.518;2023-04-01T00:19:02;9.30;65.90
10057;DHT22;5068;51.286;7.518;2023-04-01T00:20:37;9.20;65.90
10057;DHT22;5068;51.286;7.518;2023-04-01T00:22:10;9.20;65.90
10057;DHT22;5068;51.286;7.518;2023-04-01T00:23:44;9.30;66.10
10057;DHT22;5068;51.286;7.518;2023-04-01T00:25:18;9.20;66.10
10057;DHT22;5068;51.286;7.518;2023-04-01T00:26:51;9.20;66.10
10057;DHT22;5068;51.286;7.518;2023-04-01T00:28:27;9.20;66.10
10057;DHT22;5068;51.286;7.518;2023-04-01T00:30:02;9.20;66.10
10057;DHT22;5068;51.286;7.518;2023-04-01T00:31:36;9.20;66.00
10057;DHT22;5068;51.286;7.518;2023-04-01T00:33:11;9.20;66.00
10057;DHT22;5068;51.286;7.518;2023-04-01T00:34:45;9.20;66.00
10057;DHT22;5068;51.286;7.518;2023-04-01T00:36:21;9.20;66.00
10057;DHT22;5068;51.286;7.518;2023-04-01T00:37:55;9.20;65.90
10057;DHT22;5068;51.286;7.518;2023-04-01T00:39:29;9.20;65.80
10057;DHT22;5068;51.286;7.518;2023-04-01T00:41:04;9.20;65.90
10057;DHT22;5068;51.286;7.518;2023-04-01T00:42:37;9.20;65.90
10057;DHT22;5068;51.286;7.518;2023-04-01T00:44:15;9.20;65.90
10057;DHT22;5068;51.286;7.518;2023-04-01T00:45:50;9.20;66.00
10057;DHT22;5068;51.286;7.518;2023-04-01T00:47:25;9.20;65.90
10057;DHT22;5068;51.286;7.518;2023-04-01T00:49:00;9.20;66.00
10057;DHT22;5068;51.286;7.518;2023-04-01T00:50:35;9.20;66.00
10057;DHT22;5068;51.286;7.518;2023-04-01T00:52:15;9.20;66.00
10057;DHT22;5068;51.286;7.518;2023-04-01T00:53:53;9.20;66.00
10057;DHT22;5068;51.286;7.518;2023-04-01T00:55:32;9.10;65.90
10057;DHT22;5068;51.286;7.518;2023-04-01T00:57:12;9.10;65.90
10057;DHT22;5068;51.286;7.518;2023-04-01T00:58:50;9.10;65.90
10057;DHT22;5068;51.286;7.518;2023-04-01T01:00:33;9.10;65.80
10057;DHT22;5068;51.286;7.518;2023-04-01T01:02:23;9.10;66.10
10057;DHT22;5068;51.286;7.518;2023-04-01T01:03:56;9.10;65.90
10057;DHT22;5068;51.286;7.518;2023-04-01T01:05:38;9.10;65.60
10057;DHT22;5068;51.286;7.518;2023-04-01T01:07:37;9.10;65.80
10057;DHT22;5068;51.286;7.518;2023-04-01T01:09:38;9.10;65.80
10057;DHT22;5068;51.286;7.518;2023-04-01T01:11:24;9.10;66.00
10057;DHT22;5068;51.286;7.518;2023-04-01T01:13:17;9.00;65.80
10057;DHT22;5068;51.286;7.518;2023-04-01T01:15:05;9.00;65.90
10057;DHT22;5068;51.286;7.518;2023-04-01T01:16:50;9.10;66.10
10057;DHT22;5068;51.286;7.518;2023-04-01T01:18:33;9.00;66.00
10057;DHT22;5068;51.286;7.518;2023-04-01T01:20:46;9.00;66.00
10057;DHT22;5068;51.286;7.518;2023-04-01T01:23:02;9.00;66.20
10057;DHT22;5068;51.286;7.518;2023-04-01T01:24:56;9.00;66.20
10057;DHT22;5068;51.286;7.518;2023-04-01T01:26:51;9.00;66.20
10057;DHT22;5068;51.286;7.518;2023-04-01T01:28:36;9.00;66.30
10057;DHT22;5068;51.286;7.518;2023-04-01T01:30:27;9.00;66.40
10057;DHT22;5068;51.286;7.518;2023-04-01T01:32:18;8.90;66.30
10057;DHT22;5068;51.286;7.518;2023-04-01T01:34:11;8.90;66.30
10057;DHT22;5068;51.286;7.518;2023-04-01T01:35:57;8.90;66.40
10057;DHT22;5068;51.286;7.518;2023-04-01T01:37:39;8.90;66.40
10057;DHT22;5068;51.286;7.518;2023-04-01T01:39:16;9.00;66.50
10057;DHT22;5068;51.286;7.518;2023-04-01T01:40:59;9.00;66.70
10057;DHT22;5068;51.286;7.518;2023-04-01T01:42:38;8.90;66.50
10057;DHT22;5068;51.286;7.518;2023-04-01T01:44:16;8.90;66.50
10057;DHT22;5068;51.286;7.518;2023-04-01T01:45:54;8.90;66.50
10057;DHT22;5068;51.286;7.518;2023-04-01T01:47:30;8.90;66.60
10057;DHT22;5068;51.286;7.518;2023-04-01T01:49:07;8.90;66.60
10057;DHT22;5068;51.286;7.518;2023-04-01T01:50:45;8.90;66.60
10057;DHT22;5068;51.286;7.518;2023-04-01T01:52:22;8.90;66.60
10057;DHT22;5068;51.286;7.518;2023-04-01T01:53:55;8.90;66.80
10057;DHT22;5068;51.286;7.518;2023-04-01T01:55:31;8.90;66.70
10057;DHT22;5068;51.286;7.518;2023-04-01T01:57:07;9.00;66.80
10057;DHT22;5068;51.286;7.518;2023-04-01T01:58:48;8.90;66.50
10057;DHT22;5068;51.286;7.518;2023-04-01T02:00:26;8.90;66.50
10057;DHT22;5068;51.286;7.518;2023-04-01T02:02:00;9.00;66.60
10057;DHT22;5068;51.286;7.518;2023-04-01T02:03:40;8.90;66.80
10057;DHT22;5068;51.286;7.518;2023-04-01T02:05:19;8.90;66.50
10057;DHT22;5068;51.286;7.518;2023-04-01T02:07:01;8.90;66.50
10057;DHT22;5068;51.286;7.518;2023-04-01T02:08:40;8.90;66.50
10057;DHT22;5068;51.286;7.518;2023-04-01T02:10:19;8.90;66.50
10057;DHT22;5068;51.286;7.518;2023-04-01T02:11:57;8.90;66.70
10057;DHT22;5068;51.286;7.518;2023-04-01T02:13:42;8.90;66.70
10057;DHT22;5068;51.286;7.518;2023-04-01T02:15:21;8.90;66.70
10057;DHT22;5068;51.286;7.518;2023-04-01T02:16:57;8.90;66.60
10057;DHT22;5068;51.286;7.518;2023-04-01T02:18:34;8.90;66.70
10057;DHT22;5068;51.286;7.518;2023-04-01T02:20:13;8.90;66.70
10057;DHT22;5068;51.286;7.518;2023-04-01T02:21:50;8.90;66.90
10057;DHT22;5068;51.286;7.518;2023-04-01T02:23:28;8.90;66.80
10057;DHT22;5068;51.286;7.518;2023-04-01T02:25:05;8.90;66.80
10057;DHT22;5068;51.286;7.518;2023-04-01T02:26:41;8.90;66.80
10057;DHT22;5068;51.286;7.518;2023-04-01T02:28:18;8.90;66.80
10057;DHT22;5068;51.286;7.518;2023-04-01T02:29:53;8.90;66.80
10057;DHT22;5068;51.286;7.518;2023-04-01T02:31:27;8.90;66.80
10057;DHT22;5068;51.286;7.518;2023-04-01T02:33:01;8.90;66.90
10057;DHT22;5068;51.286;7.518;2023-04-01T02:34:36;8.90;66.90
10057;DHT22;5068;51.286;7.518;2023-04-01T02:36:12;8.90;66.80
10057;DHT22;5068;51.286;7.518;2023-04-01T02:37:48;8.90;66.90
10057;DHT22;5068;51.286;7.518;2023-04-01T02:39:23;8.90;66.80
10057;DHT22;5068;51.286;7.518;2023-04-01T02:41:00;8.90;66.90
10057;DHT22;5068;51.286;7.518;2023-04-01T02:42:36;8.90;66.80
10057;DHT22;5068;51.286;7.518;2023-04-01T02:44:09;8.90;66.80
10057;DHT22;5068;51.286;7.518;2023-04-01T02:45:44;8.90;66.90
10057;DHT22;5068;51.286;7.518;2023-04-01T02:47:17;8.90;66.80
10057;DHT22;5068;51.286;7.518;2023-04-01T02:48:50;8.90;66.90
10057;DHT22;5068;51.286;7.518;2023-04-01T02:50:23;8.90;66.90
10057;DHT22;5068;51.286;7.518;2023-04-01T02:51:56;8.90;66.90
10057;DHT22;5068;51.286;7.518;2023-04-01T02:53:29;8.90;67.00
10057;DHT22;5068;51.286;7.518;2023-04-01T02:55:02;8.90;67.00
10057;DHT22;5068;51.286;7.518;2023-04-01T02:56:38;8.90;67.00
10057;DHT22;5068;51.286;7.518;2023-04-01T02:58:13;8.90;67.00
10057;DHT22;5068;51.286;7.518;2023-04-01T02:59:47;8.90;66.90
10057;DHT22;5068;51.286;7.518;2023-04-01T03:01:21;8.90;66.90
10057;DHT22;5068;51.286;7.518;2023-04-01T03:02:54;8.90;66.90
10057;DHT22;5068;51.286;7.518;2023-04-01T03:04:28;8.90;66.90
10057;DHT22;5068;51.286;7.518;2023-04-01T03:06:05;8.90;66.80
10057;DHT22;5068;51.286;7.518;2023-04-01T03:07:38;8.90;66.90
10057;DHT22;5068;51.286;7.518;2023-04-01T03:09:11;8.90;66.90
10057;DHT22;5068;51.286;7.518;2023-04-01T03:10:44;8.90;67.00
10057;DHT22;5068;51.286;7.518;2023-04-01T03:12:18;8.90;67.00
10057;DHT22;5068;51.286;7.518;2023-04-01T03:13:55;8.90;67.00
10057;DHT22;5068;51.286;7.518;2023-04-01T03:15:28;8.90;67.00
10057;DHT22;5068;51.286;7.518;2023-04-01T03:17:02;8.90;66.90
10057;DHT22;5068;51.286;7.518;2023-04-01T03:18:35;8.90;66.80
10057;DHT22;5068;51.286;7.518;2023-04-01T03:20:09;8.90;66.70
10057;DHT22;5068;51.286;7.518;2023-04-01T03:21:43;8.90;66.60
10057;DHT22;5068;51.286;7.518;2023-04-01T03:23:16;8.90;66.50
10057;DHT22;5068;51.286;7.518;2023-04-01T03:24:51;8.90;66.40
10057;DHT22;5068;51.286;7.518;2023-04-01T03:26:24;8.90;66.40
10057;DHT22;5068;51.286;7.518;2023-04-01T03:28:00;8.90;66.40
10057;DHT22;5068;51.286;7.518;2023-04-01T03:29:34;8.90;66.40
10057;DHT22;5068;51.286;7.518;2023-04-01T03:31:07;8.90;66.30
10057;DHT22;5068;51.286;7.518;2023-04-01T03:32:46;8.90;66.30
10057;DHT22;5068;51.286;7.518;2023-04-01T03:34:19;8.90;66.20
10057;DHT22;5068;51.286;7.518;2023-04-01T03:35:53;8.90;66.20
10057;DHT22;5068;51.286;7.518;2023-04-01T03:37:26;8.90;66.10
10057;DHT22;5068;51.286;7.518;2023-04-01T03:38:59;8.90;66.20
10057;DHT22;5068;51.286;7.518;2023-04-01T03:40:42;8.90;66.30
10057;DHT22;5068;51.286;7.518;2023-04-01T03:42:15;8.80;66.30
10057;DHT22;5068;51.286;7.518;2023-04-01T03:43:50;8.80;66.20
10057;DHT22;5068;51.286;7.518;2023-04-01T03:45:23;8.90;66.30
10057;DHT22;5068;51.286;7.518;2023-04-01T03:46:57;8.80;66.30
10057;DHT22;5068;51.286;7.518;2023-04-01T03:48:30;8.80;66.30
10057;DHT22;5068;51.286;7.518;2023-04-01T03:50:13;8.80;66.40
10057;DHT22;5068;51.286;7.518;2023-04-01T03:51:46;8.80;66.30
10057;DHT22;5068;51.286;7.518;2023-04-01T03:53:18;8.80;66.40
10057;DHT22;5068;51.286;7.518;2023-04-01T03:54:53;8.80;66.40
10057;DHT22;5068;51.286;7.518;2023-04-01T03:56:25;8.80;66.50
10057;DHT22;5068;51.286;7.518;2023-04-01T03:57:59;8.80;66.50
10057;DHT22;5068;51.286;7.518;2023-04-01T03:59:35;8.80;66.50
10057;DHT22;5068;51.286;7.518;2023-04-01T04:01:17;8.80;66.60
10057;DHT22;5068;51.286;7.518;2023-04-01T04:02:55;8.80;66.60
10057;DHT22;5068;51.286;7.518;2023-04-01T04:04:34;8.80;66.60
10057;DHT22;5068;51.286;7.518;2023-04-01T04:06:11;8.80;66.50
10057;DHT22;5068;51.286;7.518;2023-04-01T04:07:44;8.80;66.70
10057;DHT22;5068;51.286;7.518;2023-04-01T04:09:17;8.80;66.70
10057;DHT22;5068;51.286;7.518;2023-04-01T04:10:54;8.80;66.70
10057;DHT22;5068;51.286;7.518;2023-04-01T04:12:28;8.80;66.80
10057;DHT22;5068;51.286;7.518;2023-04-01T04:14:01;8.80;66.80
10057;DHT22;5068;51.286;7.518;2023-04-01T04:15:35;8.80;66.90
10057;DHT22;5068;51.286;7.518;2023-04-01T04:17:10;8.70;66.80
10057;DHT22;5068;51.286;7.518;2023-04-01T04:18:48;8.80;66.90
10057;DHT22;5068;51.286;7.518;2023-04-01T04:20:22;8.70;66.80
10057;DHT22;5068;51.286;7.518;2023-04-01T04:21:56;8.70;66.80
10057;DHT22;5068;51.286;7.518;2023-04-01T04:23:29;8.70;66.80
10057;DHT22;5068;51.286;7.518;2023-04-01T04:25:05;8.80;66.90
10057;DHT22;5068;51.286;7.518;2023-04-01T04:26:40;8.80;67.00
10057;DHT22;5068;51.286;7.518;2023-04-01T04:28:14;8.70;66.90
10057;DHT22;5068;51.286;7.518;2023-04-01T04:29:46;8.80;67.00
10057;DHT22;5068;51.286;7.518;2023-04-01T04:31:21;8.70;66.90
10057;DHT22;5068;51.286;7.518;2023-04-01T04:32:58;8.80;67.10
10057;DHT22;5068;51.286;7.518;2023-04-01T04:34:31;8.70;66.80
10057;DHT22;5068;51.286;7.518;2023-04-01T04:36:05;8.70;66.80
10057;DHT22;5068;51.286;7.518;2023-04-01T04:37:39;8.70;66.90
10057;DHT22;5068;51.286;7.518;2023-04-01T04:39:12;8.70;66.90
10057;DHT22;5068;51.286;7.518;2023-04-01T04:40:47;8.70;67.00
10057;DHT22;5068;51.286;7.518;2023-04-01T04:42:20;8.70;67.10
10057;DHT22;5068;51.286;7.518;2023-04-01T04:43:57;8.70;67.30
10057;DHT22;5068;51.286;7.518;2023-04-01T04:45:31;8.70;67.30
10057;DHT22;5068;51.286;7.518;2023-04-01T04:47:06;8.70;67.30
10057;DHT22;5068;51.286;7.518;2023-04-01T04:48:40;8.70;67.30
10057;DHT22;5068;51.286;7.518;2023-04-01T04:50:15;8.70;67.20
10057;DHT22;5068;51.286;7.518;2023-04-01T04:51:49;8.70;67.40
10057;DHT22;5068;51.286;7.518;2023-04-01T04:53:23;8.70;67.30
10057;DHT22;5068;51.286;7.518;2023-04-01T04:54:57;8.70;67.50
10057;DHT22;5068;51.286;7.518;2023-04-01T04:56:31;8.70;67.20
10057;DHT22;5068;51.286;7.518;2023-04-01T04:58:09;8.70;67.30
10057;DHT22;5068;51.286;7.518;2023-04-01T04:59:46;8.70;67.40
10057;DHT22;5068;51.286;7.518;2023-04-01T05:01:38;8.70;67.50
10057;DHT22;5068;51.286;7.518;2023-04-01T05:03:13;8.70;67.70
10057;DHT22;5068;51.286;7.518;2023-04-01T05:04:47;8.70;67.60
10057;DHT22;5068;51.286;7.518;2023-04-01T05:06:21;8.70;67.50
10057;DHT22;5068;51.286;7.518;2023-04-01T05:07:54;8.70;67.60
10057;DHT22;5068;51.286;7.518;2023-04-01T05:09:27;8.70;67.50
10057;DHT22;5068;51.286;7.518;2023-04-01T05:11:02;8.70;67.50
10057;DHT22;5068;51.286;7.518;2023-04-01T05:12:37;8.70;67.50
10057;DHT22;5068;51.286;7.518;2023-04-01T05:14:14;8.80;67.60
10057;DHT22;5068;51.286;7.518;2023-04-01T05:15:53;8.70;67.60
10057;DHT22;5068;51.286;7.518;2023-04-01T05:17:27;8.70;67.60
10057;DHT22;5068;51.286;7.518;2023-04-01T05:19:01;8.70;67.50
10057;DHT22;5068;51.286;7.518;2023-04-01T05:20:35;8.70;67.60
10057;DHT22;5068;51.286;7.518;2023-04-01T05:22:08;8.70;67.70
10057;DHT22;5068;51.286;7.518;2023-04-01T05:23:42;8.70;67.70
10057;DHT22;5068;51.286;7.518;2023-04-01T05:25:15;8.70;67.70
10057;DHT22;5068;51.286;7.518;2023-04-01T05:26:49;8.70;67.80
10057;DHT22;5068;51.286;7.518;2023-04-01T05:28:22;8.70;67.80
10057;DHT22;5068;51.286;7.518;2023-04-01T05:29:55;8.70;67.80
10057;DHT22;5068;51.286;7.518;2023-04-01T05:31:44;8.70;67.70
10057;DHT22;5068;51.286;7.518;2023-04-01T05:33:18;8.70;67.70
10057;DHT22;5068;51.286;7.518;2023-04-01T05:34:53;8.70;67.80
10057;DHT22;5068;51.286;7.518;2023-04-01T05:36:26;8.70;67.80
10057;DHT22;5068;51.286;7.518;2023-04-01T05:38:00;8.70;67.90
10057;DHT22;5068;51.286;7.518;2023-04-01T05:39:36;8.70;67.90
10057;DHT22;5068;51.286;7.518;2023-04-01T05:41:10;8.70;68.00
10057;DHT22;5068;51.286;7.518;2023-04-01T05:42:47;8.70;68.00
10057;DHT22;5068;51.286;7.518;2023-04-01T05:44:21;8.70;68.10
10057;DHT22;5068;51.286;7.518;2023-04-01T05:46:23;8.70;68.10
10057;DHT22;5068;51.286;7.518;2023-04-01T05:48:04;8.70;68.10
10057;DHT22;5068;51.286;7.518;2023-04-01T05:49:42;8.70;68.20
10057;DHT22;5068;51.286;7.518;2023-04-01T05:51:17;8.70;68.00
10057;DHT22;5068;51.286;7.518;2023-04-01T05:52:51;8.80;68.00
10057;DHT22;5068;51.286;7.518;2023-04-01T05:54:24;8.80;67.90
10057;DHT22;5068;51.286;7.518;2023-04-01T05:56:01;8.80;67.80
10057;DHT22;5068;51.286;7.518;2023-04-01T05:57:40;8.80;67.90
10057;DHT22;5068;51.286;7.518;2023-04-01T05:59:13;8.80;67.80
10057;DHT22;5068;51.286;7.518;2023-04-01T06:00:46;8.80;67.80
10057;DHT22;5068;51.286;7.518;2023-04-01T06:02:33;8.80;67.80
10057;DHT22;5068;51.286;7.518;2023-04-01T06:04:09;8.80;68.00
10057;DHT22;5068;51.286;7.518;2023-04-01T06:05:45;8.80;67.80
10057;DHT22;5068;51.286;7.518;2023-04-01T06:07:20;8.80;67.80
10057;DHT22;5068;51.286;7.518;2023-04-01T06:08:53;8.70;67.80
10057;DHT22;5068;51.286;7.518;2023-04-01T06:10:39;8.70;67.80
10057;DHT22;5068;51.286;7.518;2023-04-01T06:12:36;8.80;68.10
10057;DHT22;5068;51.286;7.518;2023-04-01T06:14:40;8.70;68.10
10057;DHT22;5068;51.286;7.518;2023-04-01T06:16:31;8.60;68.10
10057;DHT22;5068;51.286;7.518;2023-04-01T06:18:34;8.70;68.30
10057;DHT22;5068;51.286;7.518;2023-04-01T06:20:23;8.70;68.50
10057;DHT22;5068;51.286;7.518;2023-04-01T06:22:29;8.70;68.50
10057;DHT22;5068;51.286;7.518;2023-04-01T06:24:47;8.70;68.70
10057;DHT22;5068;51.286;7.518;2023-04-01T06:26:33;8.70;68.60
10057;DHT22;5068;51.286;7.518;2023-04-01T06:28:45;8.80;68.70
10057;DHT22;5068;51.286;7.518;2023-04-01T06:30:34;8.70;68.80
10057;DHT22;5068;51.286;7.518;2023-04-01T06:32:30;8.70;68.90
10057;DHT22;5068;51.286;7.518;2023-04-01T06:34:26;8.70;68.60
10057;DHT22;5068;51.286;7.518;2023-04-01T06:36:36;8.70;68.70
10057;DHT22;5068;51.286;7.518;2023-04-01T06:38:28;8.70;68.70
10057;DHT22;5068;51.286;7.518;2023-04-01T06:40:35;8.70;68.80
10057;DHT22;5068;51.286;7.518;2023-04-01T06:42:42;8.70;68.90
10057;DHT22;5068;51.286;7.518;2023-04-01T06:45:00;8.70;69.00
10057;DHT22;5068;51.286;7.518;2023-04-01T06:47:04;8.70;68.90
10057;DHT22;5068;51.286;7.518;2023-04-01T06:49:31;8.70;69.10
10057;DHT22;5068;51.286;7.518;2023-04-01T06:51:39;8.70;69.30
10057;DHT22;5068;51.286;7.518;2023-04-01T06:53:49;8.70;69.10
10057;DHT22;5068;51.286;7.518;2023-04-01T06:55:55;8.70;69.10
10057;DHT22;5068;51.286;7.518;2023-04-01T06:57:58;8.70;69.80
10057;DHT22;5068;51.286;7.518;2023-04-01T06:59:35;8.80;69.10
10057;DHT22;5068;51.286;7.518;2023-04-01T07:01:14;8.80;69.20
10057;DHT22;5068;51.286;7.518;2023-04-01T07:02:55;8.80;69.20
10057;DHT22;5068;51.286;7.518;2023-04-01T07:04:39;8.80;69.30
10057;DHT22;5068;51.286;7.518;2023-04-01T07:06:25;8.80;69.20
10057;DHT22;5068;51.286;7.518;2023-04-01T07:08:05;8.80;69.40
10057;DHT22;5068;51.286;7.518;2023-04-01T07:09:49;8.80;69.30
10057;DHT22;5068;51.286;7.518;2023-04-01T07:11:35;8.80;69.30
10057;DHT22;5068;51.286;7.518;2023-04-01T07:13:46;8.80;69.30
10057;DHT22;5068;51.286;7.518;2023-04-01T07:15:28;8.90;69.40
10057;DHT22;5068;51.286;7.518;2023-04-01T07:17:13;8.80;69.40
10057;DHT22;5068;51.286;7.518;2023-04-01T07:18:53;8.80;69.40
10057;DHT22;5068;51.286;7.518;2023-04-01T07:20:38;8.80;69.40
10057;DHT22;5068;51.286;7.518;2023-04-01T07:22:19;8.90;69.50
10057;DHT22;5068;51.286;7.518;2023-04-01T07:24:11;8.90;69.60
10057;DHT22;5068;51.286;7.518;2023-04-01T07:26:01;8.90;69.50
10057;DHT22;5068;51.286;7.518;2023-04-01T07:28:15;8.90;69.60
10057;DHT22;5068;51.286;7.518;2023-04-01T07:29:56;8.90;69.50
10057;DHT22;5068;51.286;7.518;2023-04-01T07:32:04;8.90;69.50
10057;DHT22;5068;51.286;7.518;2023-04-01T07:33:54;9.00;69.60
10057;DHT22;5068;51.286;7.518;2023-04-01T07:35:38;9.00;69.50
10057;DHT22;5068;51.286;7.518;2023-04-01T07:37:23;9.00;69.40
10057;DHT22;5068;51.286;7.518;2023-04-01T07:39:09;9.00;69.40
10057;DHT22;5068;51.286;7.518;2023-04-01T07:41:12;9.00;69.30
10057;DHT22;5068;51.286;7.518;2023-04-01T07:45:31;9.10;69.50
10057;DHT22;5068;51.286;7.518;2023-04-01T07:47:38;9.20;69.40
10057;DHT22;5068;51.286;7.518;2023-04-01T07:49:26;9.20;69.50
10057;DHT22;5068;51.286;7.518;2023-04-01T07:51:09;9.20;69.50
10057;DHT22;5068;51.286;7.518;2023-04-01T07:52:54;9.20;69.50
10057;DHT22;5068;51.286;7.518;2023-04-01T07:54:42;9.20;69.30
10057;DHT22;5068;51.286;7.518;2023-04-01T07:56:25;9.30;70.50
10057;DHT22;5068;51.286;7.518;2023-04-01T07:58:08;9.30;69.30
10057;DHT22;5068;51.286;7.518;2023-04-01T07:59:57;9.30;69.20
10057;DHT22;5068;51.286;7.518;2023-04-01T08:02:03;9.30;69.20
10057;DHT22;5068;51.286;7.518;2023-04-01T08:04:00;9.30;69.20
10057;DHT22;5068;51.286;7.518;2023-04-01T08:05:50;9.30;69.20
10057;DHT22;5068;51.286;7.518;2023-04-01T08:07:36;9.30;69.00
10057;DHT22;5068;51.286;7.518;2023-04-01T08:09:42;9.40;69.00
10057;DHT22;5068;51.286;7.518;2023-04-01T08:11:50;9.40;68.90
10057;DHT22;5068;51.286;7.518;2023-04-01T08:13:56;9.40;68.80
10057;DHT22;5068;51.286;7.518;2023-04-01T08:16:05;9.40;68.80
10057;DHT22;5068;51.286;7.518;2023-04-01T08:18:03;9.40;68.80
10057;DHT22;5068;51.286;7.518;2023-04-01T08:19:53;9.40;68.90
10057;DHT22;5068;51.286;7.518;2023-04-01T08:21:42;9.50;68.90
10057;DHT22;5068;51.286;7.518;2023-04-01T08:23:22;9.50;68.90
10057;DHT22;5068;51.286;7.518;2023-04-01T08:24:59;9.50;69.00
10057;DHT22;5068;51.286;7.518;2023-04-01T08:26:37;9.50;69.20
10057;DHT22;5068;51.286;7.518;2023-04-01T08:28:22;9.50;69.30
10057;DHT22;5068;51.286;7.518;2023-04-01T08:30:05;9.50;69.40
10057;DHT22;5068;51.286;7.518;2023-04-01T08:31:54;9.50;69.30
10057;DHT22;5068;51.286;7.518;2023-04-01T08:33:30;9.60;69.40
10057;DHT22;5068;51.286;7.518;2023-04-01T08:35:20;9.60;69.40
10057;DHT22;5068;51.286;7.518;2023-04-01T08:37:05;9.60;69.40
10057;DHT22;5068;51.286;7.518;2023-04-01T08:38:44;9.60;69.20
10057;DHT22;5068;51.286;7.518;2023-04-01T08:40:48;9.70;69.20
10057;DHT22;5068;51.286;7.518;2023-04-01T08:42:54;9.70;69.00
10057;DHT22;5068;51.286;7.518;2023-04-01T08:47:13;9.70;68.80
10057;DHT22;5068;51.286;7.518;2023-04-01T08:49:00;9.70;68.70
10057;DHT22;5068;51.286;7.518;2023-04-01T08:51:09;9.70;68.80
10057;DHT22;5068;51.286;7.518;2023-04-01T08:53:06;9.70;68.60
10057;DHT22;5068;51.286;7.518;2023-04-01T08:57:13;9.70;68.20
10057;DHT22;5068;51.286;7.518;2023-04-01T08:59:37;9.70;68.10
10057;DHT22;5068;51.286;7.518;2023-04-01T09:01:58;9.70;68.30
10057;DHT22;5068;51.286;7.518;2023-04-01T09:06:24;9.70;68.20
10057;DHT22;5068;51.286;7.518;2023-04-01T09:08:15;9.70;68.20
10057;DHT22;5068;51.286;7.518;2023-04-01T09:10:36;9.70;68.20
10057;DHT22;5068;51.286;7.518;2023-04-01T09:13:16;9.70;68.20
10057;DHT22;5068;51.286;7.518;2023-04-01T09:17:28;9.70;68.10
10057;DHT22;5068;51.286;7.518;2023-04-01T09:19:36;9.70;68.30
10057;DHT22;5068;51.286;7.518;2023-04-01T09:21:46;9.70;68.30
10057;DHT22;5068;51.286;7.518;2023-04-01T09:23:36;9.70;68.30
10057;DHT22;5068;51.286;7.518;2023-04-01T09:25:51;9.70;68.40
10057;DHT22;5068;51.286;7.518;2023-04-01T09:27:36;9.70;69.20
10057;DHT22;5068;51.286;7.518;2023-04-01T09:29:29;9.70;68.20
10057;DHT22;5068;51.286;7.518;2023-04-01T09:31:40;9.70;68.50
10057;DHT22;5068;51.286;7.518;2023-04-01T09:36:20;9.70;68.60
10057;DHT22;5068;51.286;7.518;2023-04-01T09:38:21;9.70;68.50
10057;DHT22;5068;51.286;7.518;2023-04-01T09:40:11;9.70;68.40
10057;DHT22;5068;51.286;7.518;2023-04-01T09:42:08;9.70;68.60
10057;DHT22;5068;51.286;7.518;2023-04-01T09:44:07;9.70;68.60
10057;DHT22;5068;51.286;7.518;2023-04-01T09:46:11;9.70;68.60
10057;DHT22;5068;51.286;7.518;2023-04-01T09:48:05;9.70;68.60
10057;DHT22;5068;51.286;7.518;2023-04-01T09:50:03;9.70;68.60
10057;DHT22;5068;51.286;7.518;2023-04-01T09:52:23;9.70;68.70
10057;DHT22;5068;51.286;7.518;2023-04-01T09:54:19;9.70;68.60
10057;DHT22;5068;51.286;7.518;2023-04-01T09:56:23;9.70;68.80
10057;DHT22;5068;51.286;7.518;2023-04-01T10:04:03;9.70;68.20
10057;DHT22;5068;51.286;7.518;2023-04-01T10:08:56;9.70;68.20
10057;DHT22;5068;51.286;7.518;2023-04-01T10:11:05;9.70;68.20
10057;DHT22;5068;51.286;7.518;2023-04-01T10:13:11;9.70;68.30
10057;DHT22;5068;51.286;7.518;2023-04-01T10:20:29;9.60;68.50
10057;DHT22;5068;51.286;7.518;2023-04-01T10:23:13;9.60;68.80
10057;DHT22;5068;51.286;7.518;2023-04-01T10:25:38;9.60;68.50
10057;DHT22;5068;51.286;7.518;2023-04-01T10:30:34;9.60;68.50
10057;DHT22;5068;51.286;7.518;2023-04-01T10:32:49;9.60;68.50
10057;DHT22;5068;51.286;7.518;2023-04-01T10:35:22;9.60;68.60
10057;DHT22;5068;51.286;7.518;2023-04-01T10:37:21;9.60;68.70
10057;DHT22;5068;51.286;7.518;2023-04-01T10:39:32;9.60;68.50
10057;DHT22;5068;51.286;7.518;2023-04-01T10:41:58;9.60;68.60
10057;DHT22;5068;51.286;7.518;2023-04-01T10:52:12;9.70;68.80
10057;DHT22;5068;51.286;7.518;2023-04-01T10:54:43;9.70;69.20
10057;DHT22;5068;51.286;7.518;2023-04-01T10:56:40;9.70;69.20
10057;DHT22;5068;51.286;7.518;2023-04-01T11:09:44;9.80;69.40
10057;DHT22;5068;51.286;7.518;2023-04-01T11:12:01;9.90;69.00
10057;DHT22;5068;51.286;7.518;2023-04-01T11:14:24;9.90;69.00
10057;DHT22;5068;51.286;7.518;2023-04-01T11:16:51;9.90;68.90
10057;DHT22;5068;51.286;7.518;2023-04-01T11:19:09;9.90;68.90
10057;DHT22;5068;51.286;7.518;2023-04-01T11:21:44;9.90;68.90
10057;DHT22;5068;51.286;7.518;2023-04-01T11:23:53;10.00;69.40
10057;DHT22;5068;51.286;7.518;2023-04-01T11:25:55;10.00;69.10
10057;DHT22;5068;51.286;7.518;2023-04-01T11:28:09;10.00;69.00
10057;DHT22;5068;51.286;7.518;2023-04-01T11:30:16;10.00;69.00
10057;DHT22;5068;51.286;7.518;2023-04-01T11:32:11;10.10;69.30
10057;DHT22;5068;51.286;7.518;2023-04-01T11:33:55;10.10;69.30
10057;DHT22;5068;51.286;7.518;2023-04-01T11:35:57;10.10;69.10
10057;DHT22;5068;51.286;7.518;2023-04-01T11:37:57;10.10;68.70
10057;DHT22;5068;51.286;7.518;2023-04-01T11:40:03;10.20;68.80
10057;DHT22;5068;51.286;7.518;2023-04-01T11:42:17;10.10;68.60
10057;DHT22;5068;51.286;7.518;2023-04-01T11:44:18;10.20;68.50
10057;DHT22;5068;51.286;7.518;2023-04-01T11:46:36;10.20;68.50
10057;DHT22;5068;51.286;7.518;2023-04-01T11:48:36;10.20;68.60
10057;DHT22;5068;51.286;7.518;2023-04-01T11:50:35;10.20;68.60
10057;DHT22;5068;51.286;7.518;2023-04-01T11:52:44;10.20;68.70
10057;DHT22;5068;51.286;7.518;2023-04-01T11:54:37;10.20;68.60
10057;DHT22;5068;51.286;7.518;2023-04-01T11:56:32;10.20;68.40
10057;DHT22;5068;51.286;7.518;2023-04-01T11:58:32;10.30;68.40
10057;DHT22;5068;51.286;7.518;2023-04-01T12:00:45;10.30;68.40
10057;DHT22;5068;51.286;7.518;2023-04-01T12:02:41;10.30;68.40
10057;DHT22;5068;51.286;7.518;2023-04-01T12:06:34;10.30;68.10
10057;DHT22;5068;51.286;7.518;2023-04-01T12:08:24;10.30;68.00
10057;DHT22;5068;51.286;7.518;2023-04-01T12:10:17;10.30;68.00
10057;DHT22;5068;51.286;7.518;2023-04-01T12:12:03;10.30;69.10
10057;DHT22;5068;51.286;7.518;2023-04-01T12:13:55;10.30;68.60
10057;DHT22;5068;51.286;7.518;2023-04-01T12:15:48;10.30;68.80
10057;DHT22;5068;51.286;7.518;2023-04-01T12:17:36;10.30;68.80
10057;DHT22;5068;51.286;7.518;2023-04-01T12:19:24;10.30;68.90
10057;DHT22;5068;51.286;7.518;2023-04-01T12:21:14;10.30;68.80
10057;DHT22;5068;51.286;7.518;2023-04-01T12:23:03;10.30;68.60